BER109 EGKK-EDDH
Flight info
| Callsign | BER109 |
|---|---|
| Flight time | 1h 15m |
| Altitude | 39000 |
| Route | FRANE M604 PAAVO Q295 SOMVA DCT MAVAS DCT TULIP Y12 SPY N873 ANDIK M105 RIBSO RIBSO3P |
| Aircraft | B738/M-SDE2E3FGHIRWXY/LB1 |
Departure
| Time | 2026-04-25 08:58 |
|---|---|
| Airport | London Gatwick Airport (EGKK) |
Arrival
| Time | 2026-04-25 10:14 |
|---|---|
| Airport | Hamburg Helmut Schmidt Airport (EDDH) |
| Time | Latitude | Longitude | Altitude | Speed | Heading |
|---|---|---|---|---|---|
| 2026-04-25 08:14 | 51.15862 | -0.17942 | 195 ft | 0 kts | 78° |
| 2026-04-25 08:15 | 51.15860 | -0.17956 | 204 ft | 0 kts | 78° |
| 2026-04-25 08:46 | 51.15857 | -0.17978 | 205 ft | 4 kts | 78° |
| 2026-04-25 08:46 | 51.15851 | -0.18019 | 209 ft | 3 kts | 78° |
| 2026-04-25 08:46 | 51.15849 | -0.18053 | 215 ft | 4 kts | 100° |
| 2026-04-25 08:47 | 51.15860 | -0.18086 | 209 ft | 4 kts | 152° |
| 2026-04-25 08:47 | 51.15883 | -0.18097 | 207 ft | 4 kts | 167° |
| 2026-04-25 08:47 | 51.15895 | -0.18101 | 211 ft | 1 kts | 168° |
| 2026-04-25 08:50 | 51.15877 | -0.18095 | 214 ft | 7 kts | 167° |
| 2026-04-25 08:50 | 51.15823 | -0.18075 | 208 ft | 8 kts | 168° |
| 2026-04-25 08:50 | 51.15766 | -0.18054 | 204 ft | 9 kts | 166° |
| 2026-04-25 08:50 | 51.15705 | -0.18048 | 213 ft | 9 kts | 204° |
| 2026-04-25 08:51 | 51.15676 | -0.18133 | 214 ft | 9 kts | 254° |
| 2026-04-25 08:51 | 51.15656 | -0.18282 | 208 ft | 19 kts | 257° |
| 2026-04-25 08:51 | 51.15626 | -0.18501 | 206 ft | 20 kts | 258° |
| 2026-04-25 08:51 | 51.15596 | -0.18716 | 204 ft | 20 kts | 257° |
| 2026-04-25 08:52 | 51.15527 | -0.18824 | 213 ft | 14 kts | 169° |
| 2026-04-25 08:52 | 51.15425 | -0.18789 | 204 ft | 19 kts | 168° |
| 2026-04-25 08:52 | 51.15291 | -0.18742 | 204 ft | 16 kts | 167° |
| 2026-04-25 08:52 | 51.15224 | -0.18719 | 204 ft | 9 kts | 167° |
| 2026-04-25 08:53 | 51.15164 | -0.18701 | 207 ft | 9 kts | 185° |
| 2026-04-25 08:53 | 51.15122 | -0.18794 | 206 ft | 18 kts | 257° |
| 2026-04-25 08:53 | 51.15099 | -0.18976 | 209 ft | 32 kts | 258° |
| 2026-04-25 08:53 | 51.15042 | -0.19391 | 213 ft | 40 kts | 257° |
| 2026-04-25 08:54 | 51.14985 | -0.19794 | 211 ft | 34 kts | 257° |
| 2026-04-25 08:54 | 51.14936 | -0.20150 | 210 ft | 32 kts | 257° |
| 2026-04-25 08:54 | 51.14890 | -0.20483 | 206 ft | 30 kts | 257° |
| 2026-04-25 08:54 | 51.14847 | -0.20795 | 204 ft | 28 kts | 257° |
| 2026-04-25 08:55 | 51.14806 | -0.21087 | 208 ft | 20 kts | 257° |
| 2026-04-25 08:55 | 51.14771 | -0.21276 | 204 ft | 18 kts | 257° |
| 2026-04-25 08:55 | 51.14717 | -0.21404 | 208 ft | 14 kts | 173° |
| 2026-04-25 08:55 | 51.14652 | -0.21349 | 209 ft | 9 kts | 144° |
| 2026-04-25 08:56 | 51.14617 | -0.21331 | 211 ft | 0 kts | 166° |
| 2026-04-25 08:56 | 51.14573 | -0.21311 | 208 ft | 14 kts | 159° |
| 2026-04-25 08:57 | 51.14520 | -0.21191 | 208 ft | 14 kts | 91° |
| 2026-04-25 08:57 | 51.14526 | -0.21130 | 217 ft | 0 kts | 78° |
| 2026-04-25 08:57 | 51.14528 | -0.21107 | 214 ft | 16 kts | 78° |
| 2026-04-25 08:58 | 51.14615 | -0.20472 | 215 ft | 99 kts | 77° |
| 2026-04-25 08:58 | 51.14815 | -0.19033 | 278 ft | 159 kts | 77° |
| 2026-04-25 08:58 | 51.15046 | -0.17339 | 1303 ft | 150 kts | 78° |
| 2026-04-25 08:58 | 51.15277 | -0.15651 | 2201 ft | 158 kts | 78° |
| 2026-04-25 08:59 | 51.15517 | -0.13945 | 3138 ft | 158 kts | 78° |
| 2026-04-25 08:59 | 51.15749 | -0.12244 | 3986 ft | 157 kts | 79° |
| 2026-04-25 08:59 | 51.15980 | -0.10525 | 4692 ft | 165 kts | 77° |
| 2026-04-25 08:59 | 51.16252 | -0.08552 | 4994 ft | 199 kts | 77° |
| 2026-04-25 09:00 | 51.16575 | -0.06187 | 5014 ft | 235 kts | 78° |
| 2026-04-25 09:00 | 51.16903 | -0.03547 | 4994 ft | 247 kts | 84° |
| 2026-04-25 09:00 | 51.16930 | -0.00746 | 5007 ft | 263 kts | 92° |
| 2026-04-25 09:00 | 51.16853 | 0.02035 | 4989 ft | 270 kts | 92° |
| 2026-04-25 09:01 | 51.16770 | 0.04990 | 4997 ft | 269 kts | 92° |
| 2026-04-25 09:01 | 51.16700 | 0.07950 | 5005 ft | 268 kts | 92° |
| 2026-04-25 09:01 | 51.16639 | 0.10913 | 5006 ft | 267 kts | 92° |
| 2026-04-25 09:01 | 51.16581 | 0.13887 | 5135 ft | 271 kts | 91° |
| 2026-04-25 09:02 | 51.16541 | 0.16916 | 5986 ft | 275 kts | 90° |
| 2026-04-25 09:02 | 51.16549 | 0.19964 | 6946 ft | 277 kts | 89° |
| 2026-04-25 09:02 | 51.16563 | 0.23064 | 7779 ft | 284 kts | 89° |
| 2026-04-25 09:02 | 51.16574 | 0.26229 | 8711 ft | 287 kts | 90° |
| 2026-04-25 09:03 | 51.16578 | 0.29428 | 9608 ft | 292 kts | 90° |
| 2026-04-25 09:03 | 51.16585 | 0.32698 | 10461 ft | 297 kts | 89° |
| 2026-04-25 09:03 | 51.16591 | 0.36064 | 10729 ft | 320 kts | 90° |
| 2026-04-25 09:03 | 51.16596 | 0.39728 | 10964 ft | 343 kts | 90° |
| 2026-04-25 09:04 | 51.16596 | 0.43678 | 11211 ft | 367 kts | 90° |
| 2026-04-25 09:04 | 51.16730 | 0.47805 | 11649 ft | 380 kts | 78° |
| 2026-04-25 09:04 | 51.17712 | 0.51715 | 12348 ft | 383 kts | 56° |
| 2026-04-25 09:04 | 51.19525 | 0.54804 | 13123 ft | 384 kts | 36° |
| 2026-04-25 09:05 | 51.21906 | 0.56722 | 13816 ft | 388 kts | 15° |
| 2026-04-25 09:05 | 51.24546 | 0.57702 | 14499 ft | 391 kts | 11° |
| 2026-04-25 09:05 | 51.27214 | 0.58600 | 15154 ft | 394 kts | 11° |
| 2026-04-25 09:05 | 51.29902 | 0.59547 | 15771 ft | 398 kts | 11° |
| 2026-04-25 09:06 | 51.32609 | 0.60547 | 16386 ft | 401 kts | 12° |
| 2026-04-25 09:06 | 51.35346 | 0.61588 | 16977 ft | 405 kts | 12° |
| 2026-04-25 09:06 | 51.38099 | 0.62640 | 17549 ft | 409 kts | 12° |
| 2026-04-25 09:06 | 51.40879 | 0.63696 | 18125 ft | 412 kts | 11° |
| 2026-04-25 09:07 | 51.43684 | 0.64752 | 18674 ft | 416 kts | 11° |
| 2026-04-25 09:07 | 51.46514 | 0.65814 | 19165 ft | 419 kts | 11° |
| 2026-04-25 09:07 | 51.49362 | 0.66886 | 19667 ft | 422 kts | 11° |
| 2026-04-25 09:07 | 51.52226 | 0.67965 | 20154 ft | 425 kts | 11° |
| 2026-04-25 09:08 | 51.55117 | 0.69058 | 20639 ft | 428 kts | 11° |
| 2026-04-25 09:08 | 51.58028 | 0.70159 | 21114 ft | 431 kts | 11° |
| 2026-04-25 09:08 | 51.60959 | 0.71269 | 21576 ft | 434 kts | 11° |
| 2026-04-25 09:08 | 51.63908 | 0.72387 | 22029 ft | 437 kts | 11° |
| 2026-04-25 09:09 | 51.66876 | 0.73515 | 22476 ft | 439 kts | 11° |
| 2026-04-25 09:09 | 51.69861 | 0.74650 | 22916 ft | 442 kts | 11° |
| 2026-04-25 09:09 | 51.72865 | 0.75793 | 23344 ft | 445 kts | 11° |
| 2026-04-25 09:09 | 51.75882 | 0.76949 | 23766 ft | 447 kts | 11° |
| 2026-04-25 09:10 | 51.78907 | 0.78201 | 24111 ft | 451 kts | 15° |
| 2026-04-25 09:10 | 51.81824 | 0.80167 | 24445 ft | 457 kts | 25° |
| 2026-04-25 09:10 | 51.84508 | 0.82861 | 25174 ft | 450 kts | 34° |
| 2026-04-25 09:10 | 51.86790 | 0.86268 | 25998 ft | 446 kts | 48° |
| 2026-04-25 09:11 | 51.89565 | 0.95248 | 26785 ft | 455 kts | 69° |
| 2026-04-25 09:11 | 51.90564 | 0.99736 | 27042 ft | 459 kts | 68° |
| 2026-04-25 09:11 | 51.91699 | 1.04594 | 27365 ft | 461 kts | 67° |
| 2026-04-25 09:12 | 51.92873 | 1.09425 | 27731 ft | 463 kts | 67° |
| 2026-04-25 09:12 | 51.94083 | 1.14288 | 28079 ft | 465 kts | 66° |
| 2026-04-25 09:12 | 51.95305 | 1.19140 | 28414 ft | 467 kts | 66° |
| 2026-04-25 09:12 | 51.96525 | 1.23975 | 28729 ft | 470 kts | 66° |
| 2026-04-25 09:13 | 51.97779 | 1.28947 | 29052 ft | 472 kts | 66° |
| 2026-04-25 09:13 | 51.99006 | 1.33829 | 29365 ft | 474 kts | 66° |
| 2026-04-25 09:13 | 52.00249 | 1.38794 | 29680 ft | 476 kts | 66° |
| 2026-04-25 09:13 | 52.01495 | 1.43788 | 29950 ft | 478 kts | 66° |
| 2026-04-25 09:14 | 52.02741 | 1.48799 | 30289 ft | 479 kts | 66° |
| 2026-04-25 09:14 | 52.03990 | 1.53837 | 30530 ft | 482 kts | 66° |
| 2026-04-25 09:14 | 52.05241 | 1.58894 | 30807 ft | 483 kts | 66° |
| 2026-04-25 09:14 | 52.06491 | 1.63959 | 31106 ft | 483 kts | 66° |
| 2026-04-25 09:15 | 52.07738 | 1.69021 | 31440 ft | 482 kts | 66° |
| 2026-04-25 09:15 | 52.08980 | 1.74078 | 31797 ft | 481 kts | 66° |
| 2026-04-25 09:15 | 52.10215 | 1.79117 | 32144 ft | 480 kts | 66° |
| 2026-04-25 09:15 | 52.11448 | 1.84159 | 32459 ft | 480 kts | 66° |
| 2026-04-25 09:16 | 52.12679 | 1.89201 | 32788 ft | 479 kts | 66° |
| 2026-04-25 09:16 | 52.13906 | 1.94239 | 33139 ft | 478 kts | 66° |
| 2026-04-25 09:16 | 52.15127 | 1.99265 | 33475 ft | 477 kts | 67° |
| 2026-04-25 09:16 | 52.16346 | 2.04295 | 33806 ft | 477 kts | 67° |
| 2026-04-25 09:17 | 52.18768 | 2.14322 | 34431 ft | 475 kts | 67° |
| 2026-04-25 09:17 | 52.19970 | 2.19317 | 34709 ft | 474 kts | 67° |
| 2026-04-25 09:17 | 52.21169 | 2.24310 | 34964 ft | 473 kts | 67° |
| 2026-04-25 09:18 | 52.22370 | 2.29319 | 35230 ft | 473 kts | 67° |
| 2026-04-25 09:18 | 52.23561 | 2.34303 | 35495 ft | 472 kts | 67° |
| 2026-04-25 09:18 | 52.24751 | 2.39292 | 35762 ft | 471 kts | 67° |
| 2026-04-25 09:18 | 52.25938 | 2.44279 | 36012 ft | 471 kts | 67° |
| 2026-04-25 09:19 | 52.27119 | 2.49257 | 36252 ft | 470 kts | 67° |
| 2026-04-25 09:19 | 52.28301 | 2.54243 | 36501 ft | 470 kts | 67° |
| 2026-04-25 09:19 | 52.29477 | 2.59218 | 36752 ft | 469 kts | 67° |
| 2026-04-25 09:19 | 52.30642 | 2.64185 | 36981 ft | 469 kts | 68° |
| 2026-04-25 09:20 | 52.31678 | 2.69244 | 37213 ft | 470 kts | 71° |
| 2026-04-25 09:20 | 52.32591 | 2.74365 | 37446 ft | 469 kts | 72° |
| 2026-04-25 09:20 | 52.33458 | 2.79498 | 37664 ft | 469 kts | 73° |
| 2026-04-25 09:20 | 52.34325 | 2.84647 | 37885 ft | 469 kts | 72° |
| 2026-04-25 09:21 | 52.35203 | 2.89781 | 38109 ft | 468 kts | 72° |
| 2026-04-25 09:21 | 52.36082 | 2.94833 | 38310 ft | 468 kts | 72° |
| 2026-04-25 09:21 | 52.36979 | 2.99950 | 38497 ft | 468 kts | 72° |
| 2026-04-25 09:21 | 52.37877 | 3.05066 | 38691 ft | 468 kts | 72° |
| 2026-04-25 09:22 | 52.38767 | 3.10166 | 38902 ft | 467 kts | 72° |
| 2026-04-25 09:22 | 52.39520 | 3.15352 | 39043 ft | 469 kts | 79° |
| 2026-04-25 09:22 | 52.39815 | 3.20660 | 39167 ft | 471 kts | 89° |
| 2026-04-25 09:23 | 52.39381 | 3.31409 | 39226 ft | 475 kts | 94° |
| 2026-04-25 09:23 | 52.38818 | 3.42183 | 39235 ft | 475 kts | 93° |
| 2026-04-25 09:24 | 52.38311 | 3.52953 | 39235 ft | 475 kts | 92° |
| 2026-04-25 09:24 | 52.37826 | 3.63724 | 39232 ft | 474 kts | 92° |
| 2026-04-25 09:25 | 52.37332 | 3.74492 | 39228 ft | 474 kts | 92° |
| 2026-04-25 09:25 | 52.37078 | 3.85245 | 39221 ft | 472 kts | 83° |
| 2026-04-25 09:26 | 52.38415 | 3.95660 | 39239 ft | 467 kts | 70° |
| 2026-04-25 09:26 | 52.40287 | 4.05842 | 39228 ft | 467 kts | 70° |
| 2026-04-25 09:27 | 52.42132 | 4.16064 | 39226 ft | 468 kts | 71° |
| 2026-04-25 09:27 | 52.43880 | 4.26046 | 39219 ft | 468 kts | 71° |
| 2026-04-25 09:28 | 52.45677 | 4.36449 | 39223 ft | 469 kts | 71° |
| 2026-04-25 09:28 | 52.47447 | 4.46754 | 39221 ft | 470 kts | 71° |
| 2026-04-25 09:29 | 52.49200 | 4.57013 | 39221 ft | 470 kts | 71° |
| 2026-04-25 09:29 | 52.50959 | 4.67357 | 39217 ft | 471 kts | 71° |
| 2026-04-25 09:30 | 52.52712 | 4.77722 | 39207 ft | 471 kts | 71° |
| 2026-04-25 09:30 | 52.55145 | 4.87600 | 39219 ft | 463 kts | 55° |
| 2026-04-25 09:31 | 52.58963 | 4.96001 | 39220 ft | 458 kts | 46° |
| 2026-04-25 09:31 | 52.62979 | 5.04136 | 39210 ft | 459 kts | 47° |
| 2026-04-25 09:32 | 52.66938 | 5.12374 | 39211 ft | 459 kts | 47° |
| 2026-04-25 09:32 | 52.70877 | 5.20675 | 39214 ft | 459 kts | 47° |
| 2026-04-25 09:33 | 52.74445 | 5.29460 | 39205 ft | 466 kts | 60° |
| 2026-04-25 09:33 | 52.76745 | 5.39528 | 39209 ft | 470 kts | 67° |
| 2026-04-25 09:34 | 52.78856 | 5.49744 | 39204 ft | 470 kts | 67° |
| 2026-04-25 09:34 | 52.80988 | 5.59932 | 39200 ft | 469 kts | 66° |
| 2026-04-25 09:35 | 52.83028 | 5.69538 | 39203 ft | 469 kts | 66° |
| 2026-04-25 09:35 | 52.84747 | 5.77617 | 39196 ft | 469 kts | 66° |
| 2026-04-25 09:36 | 52.86903 | 5.87785 | 39199 ft | 468 kts | 66° |
| 2026-04-25 09:36 | 52.89049 | 5.97968 | 39196 ft | 468 kts | 66° |
| 2026-04-25 09:37 | 52.91184 | 6.08154 | 39200 ft | 468 kts | 66° |
| 2026-04-25 09:37 | 52.93310 | 6.18351 | 39191 ft | 468 kts | 66° |
| 2026-04-25 09:38 | 52.95426 | 6.28553 | 39191 ft | 468 kts | 66° |
| 2026-04-25 09:38 | 52.97534 | 6.38768 | 39190 ft | 468 kts | 66° |
| 2026-04-25 09:39 | 52.99636 | 6.49007 | 39189 ft | 468 kts | 66° |
| 2026-04-25 09:39 | 53.01726 | 6.59238 | 39185 ft | 469 kts | 66° |
| 2026-04-25 09:40 | 53.04498 | 6.72892 | 39188 ft | 469 kts | 66° |
| 2026-04-25 09:40 | 53.06911 | 6.84854 | 39185 ft | 470 kts | 67° |
| 2026-04-25 09:41 | 53.08641 | 6.93477 | 39182 ft | 470 kts | 67° |
| 2026-04-25 09:41 | 53.10705 | 7.03814 | 39181 ft | 470 kts | 67° |
| 2026-04-25 09:42 | 53.12760 | 7.14143 | 38631 ft | 479 kts | 67° |
| 2026-04-25 09:42 | 53.13796 | 7.19381 | 38030 ft | 476 kts | 67° |
| 2026-04-25 09:42 | 53.14814 | 7.24611 | 37457 ft | 473 kts | 67° |
| 2026-04-25 09:43 | 53.15823 | 7.29815 | 36832 ft | 471 kts | 67° |
| 2026-04-25 09:43 | 53.16830 | 7.35015 | 36243 ft | 470 kts | 67° |
| 2026-04-25 09:43 | 53.17833 | 7.40187 | 35600 ft | 470 kts | 66° |
| 2026-04-25 09:43 | 53.18844 | 7.45376 | 34924 ft | 471 kts | 66° |
| 2026-04-25 09:44 | 53.19856 | 7.50568 | 34232 ft | 472 kts | 66° |
| 2026-04-25 09:44 | 53.20871 | 7.55793 | 33441 ft | 474 kts | 66° |
| 2026-04-25 09:44 | 53.21881 | 7.61018 | 32691 ft | 474 kts | 66° |
| 2026-04-25 09:44 | 53.22892 | 7.66255 | 32125 ft | 471 kts | 66° |
| 2026-04-25 09:45 | 53.23889 | 7.71431 | 31615 ft | 467 kts | 66° |
| 2026-04-25 09:45 | 53.24879 | 7.76570 | 31096 ft | 463 kts | 66° |
| 2026-04-25 09:45 | 53.25859 | 7.81669 | 30610 ft | 459 kts | 66° |
| 2026-04-25 09:45 | 53.26831 | 7.86738 | 30086 ft | 456 kts | 66° |
| 2026-04-25 09:46 | 53.27791 | 7.91755 | 29503 ft | 453 kts | 67° |
| 2026-04-25 09:46 | 53.28744 | 7.96754 | 28971 ft | 448 kts | 67° |
| 2026-04-25 09:46 | 53.29685 | 8.01699 | 28453 ft | 444 kts | 67° |
| 2026-04-25 09:46 | 53.30615 | 8.06596 | 27942 ft | 440 kts | 67° |
| 2026-04-25 09:47 | 53.31536 | 8.11459 | 27426 ft | 437 kts | 67° |
| 2026-04-25 09:47 | 53.32450 | 8.16296 | 26920 ft | 434 kts | 67° |
| 2026-04-25 09:47 | 53.33431 | 8.21028 | 26418 ft | 429 kts | 64° |
| 2026-04-25 09:47 | 53.34502 | 8.25671 | 25916 ft | 426 kts | 63° |
| 2026-04-25 09:48 | 53.35590 | 8.30251 | 25423 ft | 423 kts | 63° |
| 2026-04-25 09:48 | 53.36659 | 8.34768 | 24933 ft | 421 kts | 64° |
| 2026-04-25 09:48 | 53.37738 | 8.39394 | 24424 ft | 420 kts | 64° |
| 2026-04-25 09:48 | 53.38773 | 8.43893 | 23929 ft | 419 kts | 64° |
| 2026-04-25 09:49 | 53.39812 | 8.48443 | 23372 ft | 418 kts | 64° |
| 2026-04-25 09:49 | 53.40892 | 8.53002 | 22817 ft | 414 kts | 62° |
| 2026-04-25 09:49 | 53.42033 | 8.57339 | 22297 ft | 411 kts | 60° |
| 2026-04-25 09:49 | 53.43237 | 8.61734 | 21776 ft | 408 kts | 60° |
| 2026-04-25 09:50 | 53.44407 | 8.65980 | 21290 ft | 405 kts | 60° |
| 2026-04-25 09:50 | 53.45520 | 8.70055 | 20832 ft | 403 kts | 60° |
| 2026-04-25 09:50 | 53.46676 | 8.74327 | 20345 ft | 401 kts | 60° |
| 2026-04-25 09:50 | 53.47819 | 8.78589 | 19867 ft | 399 kts | 61° |
| 2026-04-25 09:51 | 53.48949 | 8.82822 | 19390 ft | 397 kts | 61° |
| 2026-04-25 09:51 | 53.50076 | 8.87052 | 18903 ft | 396 kts | 61° |
| 2026-04-25 09:51 | 53.51199 | 8.91276 | 18424 ft | 395 kts | 61° |
| 2026-04-25 09:51 | 53.52316 | 8.95476 | 17897 ft | 393 kts | 60° |
| 2026-04-25 09:52 | 53.53675 | 8.99378 | 17393 ft | 384 kts | 48° |
| 2026-04-25 09:52 | 53.55387 | 9.02746 | 16915 ft | 375 kts | 39° |
| 2026-04-25 09:52 | 53.57367 | 9.05519 | 16428 ft | 366 kts | 30° |
| 2026-04-25 09:52 | 53.59437 | 9.07976 | 15981 ft | 363 kts | 28° |
| 2026-04-25 09:53 | 53.61510 | 9.10388 | 15525 ft | 361 kts | 28° |
| 2026-04-25 09:53 | 53.63570 | 9.12793 | 15071 ft | 359 kts | 28° |
| 2026-04-25 09:53 | 53.65613 | 9.15199 | 14619 ft | 357 kts | 28° |
| 2026-04-25 09:53 | 53.67638 | 9.17602 | 14181 ft | 356 kts | 29° |
| 2026-04-25 09:54 | 53.69658 | 9.20011 | 13696 ft | 355 kts | 29° |
| 2026-04-25 09:54 | 53.71669 | 9.22419 | 13202 ft | 353 kts | 29° |
| 2026-04-25 09:54 | 53.73667 | 9.24816 | 12740 ft | 351 kts | 29° |
| 2026-04-25 09:54 | 53.75647 | 9.27193 | 12290 ft | 348 kts | 28° |
| 2026-04-25 09:55 | 53.77613 | 9.29558 | 11850 ft | 345 kts | 28° |
| 2026-04-25 09:55 | 53.79555 | 9.31916 | 11409 ft | 344 kts | 31° |
| 2026-04-25 09:55 | 53.81152 | 9.34998 | 11020 ft | 356 kts | 54° |
| 2026-04-25 09:55 | 53.82004 | 9.38930 | 10855 ft | 355 kts | 72° |
| 2026-04-25 09:56 | 53.82502 | 9.42975 | 10661 ft | 348 kts | 74° |
| 2026-04-25 09:56 | 53.82945 | 9.46965 | 10466 ft | 342 kts | 74° |
| 2026-04-25 09:56 | 53.83380 | 9.50883 | 10276 ft | 335 kts | 74° |
| 2026-04-25 09:56 | 53.83815 | 9.54705 | 10097 ft | 328 kts | 73° |
| 2026-04-25 09:57 | 53.84249 | 9.58437 | 10053 ft | 317 kts | 73° |
| 2026-04-25 09:57 | 53.84670 | 9.62025 | 9823 ft | 308 kts | 72° |
| 2026-04-25 09:57 | 53.85091 | 9.65555 | 9618 ft | 304 kts | 72° |
| 2026-04-25 09:57 | 53.85508 | 9.69049 | 9431 ft | 302 kts | 72° |
| 2026-04-25 09:58 | 53.85914 | 9.72472 | 9259 ft | 297 kts | 72° |
| 2026-04-25 09:58 | 53.86322 | 9.75924 | 9082 ft | 293 kts | 72° |
| 2026-04-25 09:58 | 53.86697 | 9.79241 | 8927 ft | 290 kts | 77° |
| 2026-04-25 09:58 | 53.86660 | 9.82661 | 8762 ft | 291 kts | 93° |
| 2026-04-25 09:59 | 53.86403 | 9.86026 | 8626 ft | 286 kts | 94° |
| 2026-04-25 09:59 | 53.86137 | 9.89352 | 8469 ft | 283 kts | 94° |
| 2026-04-25 09:59 | 53.85879 | 9.92661 | 8325 ft | 284 kts | 93° |
| 2026-04-25 09:59 | 53.85629 | 9.95988 | 8190 ft | 285 kts | 93° |
| 2026-04-25 10:00 | 53.85385 | 9.99314 | 8026 ft | 285 kts | 93° |
| 2026-04-25 10:00 | 53.85142 | 10.02656 | 7873 ft | 286 kts | 93° |
| 2026-04-25 10:00 | 53.84902 | 10.05994 | 7714 ft | 286 kts | 93° |
| 2026-04-25 10:00 | 53.84662 | 10.09319 | 7561 ft | 283 kts | 93° |
| 2026-04-25 10:01 | 53.84423 | 10.12610 | 7402 ft | 279 kts | 93° |
| 2026-04-25 10:01 | 53.84188 | 10.15850 | 7248 ft | 276 kts | 93° |
| 2026-04-25 10:01 | 53.84265 | 10.19024 | 7083 ft | 265 kts | 65° |
| 2026-04-25 10:01 | 53.85081 | 10.21688 | 6971 ft | 249 kts | 43° |
| 2026-04-25 10:02 | 53.86177 | 10.23918 | 6852 ft | 246 kts | 40° |
| 2026-04-25 10:02 | 53.87288 | 10.26125 | 6697 ft | 246 kts | 41° |
| 2026-04-25 10:02 | 53.88295 | 10.28134 | 6577 ft | 247 kts | 41° |
| 2026-04-25 10:02 | 53.89408 | 10.30364 | 6444 ft | 248 kts | 41° |
| 2026-04-25 10:03 | 53.90521 | 10.32614 | 6299 ft | 250 kts | 41° |
| 2026-04-25 10:03 | 53.91634 | 10.34872 | 6154 ft | 250 kts | 41° |
| 2026-04-25 10:03 | 53.92748 | 10.37138 | 6022 ft | 250 kts | 42° |
| 2026-04-25 10:03 | 53.93864 | 10.39411 | 5830 ft | 252 kts | 42° |
| 2026-04-25 10:04 | 53.94945 | 10.41749 | 5656 ft | 255 kts | 53° |
| 2026-04-25 10:04 | 53.95402 | 10.44688 | 5503 ft | 266 kts | 87° |
| 2026-04-25 10:04 | 53.94868 | 10.47684 | 5344 ft | 271 kts | 125° |
| 2026-04-25 10:04 | 53.93546 | 10.49928 | 5240 ft | 270 kts | 142° |
| 2026-04-25 10:05 | 53.91933 | 10.51473 | 5047 ft | 265 kts | 172° |
| 2026-04-25 10:05 | 53.90179 | 10.51437 | 4906 ft | 244 kts | 209° |
| 2026-04-25 10:05 | 53.88834 | 10.49936 | 4805 ft | 226 kts | 230° |
| 2026-04-25 10:05 | 53.87647 | 10.48189 | 4676 ft | 226 kts | 230° |
| 2026-04-25 10:06 | 53.86515 | 10.46363 | 4540 ft | 223 kts | 234° |
| 2026-04-25 10:06 | 53.85467 | 10.44436 | 4412 ft | 221 kts | 237° |
| 2026-04-25 10:06 | 53.84467 | 10.42465 | 4292 ft | 220 kts | 237° |
| 2026-04-25 10:06 | 53.83483 | 10.40473 | 4181 ft | 220 kts | 238° |
| 2026-04-25 10:07 | 53.82511 | 10.38490 | 4057 ft | 219 kts | 238° |
| 2026-04-25 10:07 | 53.81541 | 10.36506 | 3947 ft | 218 kts | 238° |
| 2026-04-25 10:07 | 53.80589 | 10.34556 | 3830 ft | 218 kts | 237° |
| 2026-04-25 10:07 | 53.79635 | 10.32610 | 3709 ft | 211 kts | 238° |
| 2026-04-25 10:08 | 53.78735 | 10.30704 | 3583 ft | 203 kts | 239° |
| 2026-04-25 10:08 | 53.77883 | 10.28894 | 3534 ft | 191 kts | 239° |
| 2026-04-25 10:08 | 53.77060 | 10.27199 | 3413 ft | 183 kts | 238° |
| 2026-04-25 10:08 | 53.76252 | 10.25557 | 3319 ft | 180 kts | 238° |
| 2026-04-25 10:09 | 53.75450 | 10.23932 | 3230 ft | 180 kts | 238° |
| 2026-04-25 10:09 | 53.74645 | 10.22302 | 3125 ft | 182 kts | 237° |
| 2026-04-25 10:09 | 53.73830 | 10.20657 | 3022 ft | 183 kts | 236° |
| 2026-04-25 10:09 | 53.73016 | 10.19014 | 2957 ft | 183 kts | 237° |
| 2026-04-25 10:10 | 53.72213 | 10.17398 | 2773 ft | 174 kts | 236° |
| 2026-04-25 10:10 | 53.71459 | 10.15877 | 2556 ft | 165 kts | 237° |
| 2026-04-25 10:10 | 53.70738 | 10.14419 | 2310 ft | 158 kts | 236° |
| 2026-04-25 10:10 | 53.70047 | 10.13021 | 2095 ft | 153 kts | 236° |
| 2026-04-25 10:11 | 53.69383 | 10.11677 | 1907 ft | 147 kts | 236° |
| 2026-04-25 10:11 | 53.68733 | 10.10362 | 1696 ft | 144 kts | 237° |
| 2026-04-25 10:11 | 53.68104 | 10.09089 | 1520 ft | 138 kts | 237° |
| 2026-04-25 10:11 | 53.67489 | 10.07841 | 1304 ft | 136 kts | 238° |
| 2026-04-25 10:12 | 53.66897 | 10.06648 | 1111 ft | 128 kts | 238° |
| 2026-04-25 10:12 | 53.66338 | 10.05516 | 952 ft | 123 kts | 238° |
| 2026-04-25 10:12 | 53.65248 | 10.03306 | 628 ft | 116 kts | 238° |
| 2026-04-25 10:13 | 53.64721 | 10.02234 | 442 ft | 121 kts | 236° |
| 2026-04-25 10:13 | 53.64180 | 10.01138 | 283 ft | 124 kts | 237° |
| 2026-04-25 10:13 | 53.63624 | 10.00026 | 101 ft | 124 kts | 236° |
| 2026-04-25 10:13 | 53.63122 | 9.98980 | 45 ft | 95 kts | 231° |
| 2026-04-25 10:14 | 53.62831 | 9.98402 | 43 ft | 42 kts | 230° |
| 2026-04-25 10:14 | 53.62657 | 9.98050 | 41 ft | 37 kts | 230° |
| 2026-04-25 10:14 | 53.62517 | 9.97793 | 40 ft | 21 kts | 199° |
| 2026-04-25 10:14 | 53.62428 | 9.97922 | 45 ft | 20 kts | 88° |
| 2026-04-25 10:15 | 53.62482 | 9.98132 | 46 ft | 20 kts | 51° |
| 2026-04-25 10:15 | 53.62605 | 9.98382 | 46 ft | 36 kts | 50° |
| 2026-04-25 10:15 | 53.62772 | 9.98719 | 46 ft | 37 kts | 51° |
| 2026-04-25 10:15 | 53.62935 | 9.99050 | 46 ft | 36 kts | 50° |
| 2026-04-25 10:16 | 53.63057 | 9.99298 | 46 ft | 25 kts | 53° |
| 2026-04-25 10:16 | 53.63154 | 9.99533 | 45 ft | 24 kts | 50° |
| 2026-04-25 10:16 | 53.63233 | 9.99691 | 47 ft | 14 kts | 46° |
| 2026-04-25 10:16 | 53.63300 | 9.99806 | 47 ft | 13 kts | 50° |
| 2026-04-25 10:17 | 53.63350 | 9.99907 | 47 ft | 10 kts | 50° |
| 2026-04-25 10:17 | 53.63396 | 10.00000 | 47 ft | 10 kts | 50° |
| 2026-04-25 10:17 | 53.63429 | 10.00098 | 47 ft | 10 kts | 90° |
| 2026-04-25 10:17 | 53.63391 | 10.00187 | 47 ft | 10 kts | 157° |
| 2026-04-25 10:18 | 53.63325 | 10.00200 | 47 ft | 9 kts | 175° |
| 2026-04-25 10:18 | 53.63261 | 10.00207 | 45 ft | 9 kts | 176° |
| 2026-04-25 10:18 | 53.63208 | 10.00213 | 47 ft | 0 kts | 176° |
| 2026-04-25 10:18 | 53.63189 | 10.00215 | 47 ft | 6 kts | 176° |
| 2026-04-25 10:19 | 53.63165 | 10.00240 | 47 ft | 4 kts | 115° |
| 2026-04-25 10:19 | 53.63164 | 10.00292 | 47 ft | 4 kts | 87° |
| 2026-04-25 10:19 | 53.63167 | 10.00343 | 47 ft | 4 kts | 84° |
| 2026-04-25 10:19 | 53.63168 | 10.00370 | 47 ft | 1 kts | 86° |
| 2026-04-25 10:20 | 53.63168 | 10.00375 | 47 ft | 0 kts | 86° |